ADDS METAR Data INFO
IDs: Format: Raw Decoded Include TAF

Data at: 0305 UTC 17 Jan 2018

KSCK 170255Z 25003KT 5SM BR OVC011 13/12 A3021 RMK AO2 SLP228 T01280117 53002
KSCK 170155Z AUTO 27004KT 6SM BR OVC011 13/12 A3020 RMK AO2 SLP226 T01280117
KSCK 170151Z AUTO 28004KT 6SM BR OVC011 13/12 A3020 RMK AO2
KSCK 170055Z AUTO 29004KT 4SM BR OVC008 13/12 A3020 RMK AO2 SLP227 T01330117
KSCK 162355Z AUTO 30004KT 5SM BR OVC007 13/12 A3021 RMK AO2 SLP228 T01330117 10133 20117 55006
KSCK 162320Z 26004KT 3SM BR OVC005 13/12 A3020 RMK AO2 T01330122
KSCK 162255Z 33004KT 2SM BR OVC005 13/12 A3021 RMK AO2 SLP228 T01330122
KSCK 162247Z 32006KT 2SM BR OVC005 13/12 A3021 RMK AO2 T01280122
KSCK 162155Z 31006KT 2 1/2SM BR OVC004 13/12 A3021 RMK AO2 SLP231 T01280117
KSCK 162055Z 34005KT 2 1/2SM BR OVC004 13/12 A3022 RMK AO2 SLP234 T01280117 58007
KSCK 162035Z 32007KT 3SM BR OVC003 13/12 A3023 RMK AO2 T01280117
KSCK 162023Z 33005KT 2 1/2SM BR OVC003 13/12 A3023 RMK AO2 T01280117
KSCK 161955Z 35006KT 1 1/2SM BR OVC004 13/11 A3024 RMK AO2 SLP240 T01280111
KSCK 161855Z 34007KT 1 1/2SM BR OVC003 12/12 A3027 RMK AO2 SLP248 T01220117
KSCK 161840Z 33006KT 1 1/2SM BR OVC003 12/12 A3026 RMK AO2 T01220117
KSCK 161823Z 33006KT 2SM BR OVC003 12/12 A3026 RMK AO2 T01220117
KSCK 161755Z 33004KT 1 1/2SM BR OVC003 12/11 A3024 RMK AO2 SLP241 60000 T01170111 10122 20094 53018
KSCK 161735Z 31005KT 1 1/2SM BR OVC004 12/11 A3024 RMK AO2 T01170111
KSCK 161705Z 32006KT 2 1/2SM BR BKN004 11/11 A3022 RMK AO2 T01110111
KSCK 161655Z 34005KT 2 1/2SM BR SCT005 BKN080 11/11 A3021 RMK AO2 SLP229 T01060106
KSCK 161636Z 31007KT 2SM BR SCT004 BKN080 11/11 A3022 RMK AO2 T01060106
KSCK 161617Z 29005KT 1SM BR OVC002 10/10 A3022 RMK AO2 T01000100 RVRNO
KSCK 161555Z 29009KT 1/2SM FG VV002 10/09 A3021 RMK AO2 SLP231 T01000094 RVRNO
KSCK 161512Z 26004KT 1/4SM FG VV002 10/10 A3018 RMK AO2 T01000100 RVRNO
KSCK 161455Z 27005KT 3/4SM BR OVC002 10/10 A3019 RMK AO2 SLP223 60000 T01000100 58002 RVRNO
KSCK 161440Z AUTO 27005KT 1SM BR OVC002 10/10 A3020 RMK AO2 T01000100 RVRNO
KSCK 161406Z AUTO 27006KT 1/2SM FG OVC003 10/09 A3020 RMK AO2 T01000094 RVRNO
KSCK 161355Z AUTO 30007KT 1 1/4SM BR OVC003 10/09 A3020 RMK AO2 RAB22E30 SLP226 P0000 T01000094
KSCK 161315Z AUTO 02003KT 1 1/2SM BR BKN004 BKN038 OVC100 10/10 A3019 RMK AO2 T01000100
KSCK 161304Z AUTO 34003KT 1/2SM FG BKN002 OVC038 10/10 A3018 RMK AO2 T01000100 RVRNO
KSCK 161255Z AUTO 29004KT 1/4SM FG VV002 10/10 A3020 RMK AO2 SLP225 T01000100 RVRNO
KSCK 161204Z AUTO 00000KT 3/4SM BR OVC002 09/09 A3019 RMK AO2 T00940094 RVRNO
KSCK 161155Z AUTO 20003KT 1SM BR OVC002 09/09 A3019 RMK AO2 SLP222 T00940094 10100 20094 53003 RVRNO
KSCK 161055Z AUTO 07004KT 3/4SM BR VV002 09/09 A3017 RMK AO2 SLP216 T00940094 RVRNO
KSCK 160955Z AUTO 08007KT 1/4SM FG VV002 09/09 A3016 RMK AO2 SLP211 T00940094 RVRNO
KSCK 160945Z AUTO 08007KT 1/4SM FG VV002 09/09 A3015 RMK AO2 T00940094 RVRNO
KSCK 160927Z AUTO 06004KT 1/2SM FG VV002 09/09 A3016 RMK AO2 T00940094 RVRNO
KSCK 160910Z 34003KT 1/4SM FG VV002 09/09 A3018 RMK AO2 T00940094 RVRNO
KSCK 160855Z 30004KT 3/4SM BR VV002 09/09 A3018 RMK AO2 SLP219 T00940089 53012 RVRNO
KSCK 160848Z 31005KT 1/2SM FG VV002 09/09 A3017 RMK AO2 T00940094 RVRNO
KSCK 160840Z 28006KT 1/4SM FG VV002 09/09 A3018 RMK AO2 T00940094 RVRNO
KSCK 160755Z 26007KT 1/2SM FG VV002 09/09 A3017 RMK AO2 SLP217 T00940094 401170067 RVRNO
KSCK 160736Z 25006KT 3/4SM BR OVC002 10/09 A3017 RMK AO2 PRESRR T01000089 RVRNO
KSCK 160655Z 00000KT 1 1/4SM BR OVC002 10/09 A3014 RMK AO2 SLP205 T01000094
KSCK 160555Z 00000KT 1 1/2SM BR OVC003 10/09 A3014 RMK AO2 SLP207 T01000094 10117 20100 51011
KSCK 160536Z 32003KT 1 3/4SM BR OVC004 10/09 A3015 RMK AO2 T01000094
KSCK 160527Z 34003KT 2SM BR OVC004 11/09 A3015 RMK AO2 T01060094
KSCK 160455Z 36003KT 2SM BR OVC005 11/09 A3014 RMK AO2 SLP206 T01060094
KSCK 160355Z 05003KT 2SM BR OVC004 10/09 A3012 RMK AO2 SLP199 T01000094
KSCK 160302Z 00000KT 2 1/2SM BR OVC004 11/09 A3012 RMK AO2 T01060094
KSCK 160255Z 00000KT 3SM BR OVC004 11/10 A3011 RMK AO2 SLP196 T01060100 53001
KSCK 160155Z 27004KT 3SM BR OVC006 11/09 A3010 RMK AO2 SLP191 T01060094
KSCK 160123Z 28006KT 3SM BR OVC006 11/09 A3010 RMK AO2 T01110094
KSCK 160055Z 27004KT 2SM BR OVC006 11/09 A3010 RMK AO2 SLP191 T01110094
KSCK 152355Z AUTO 24005KT 2SM BR OVC006 12/10 A3011 RMK AO2 SLP196 T01170100 10117 20089 55001
KSCK 152255Z 00000KT 2SM BR OVC006 12/10 A3011 RMK AO2 SLP195 T01170100
KSCK 152211Z 00000KT 2SM BR OVC006 12/10 A3011 RMK AO2 T01170100
KSCK 152155Z 00000KT 1 3/4SM BR OVC006 11/10 A3011 RMK AO2 SLP197 T01110100
KSCK 152055Z 07004KT 1 3/4SM BR OVC005 11/09 A3011 RMK AO2 SLP197 T01110094 58014
KSCK 151955Z 00000KT 1 3/4SM BR OVC003 10/10 A3014 RMK AO2 SLP205 T01000100
KSCK 151855Z 13004KT 1 3/4SM BR OVC003 09/09 A3015 RMK AO2 SLP208 T00940094
KSCK 151830Z 25003KT 1 1/4SM BR OVC002 09/09 A3015 RMK AO2 T00940089
KSCK 151755Z 00000KT 1/2SM FG OVC003 09/09 A3016 RMK AO2 SLP211 T00890089 10094 20083 53005 RVRNO
KSCK 151655Z 12005KT 1/2SM FG OVC002 09/09 A3013 RMK AO2 SLP201 T00890089 RVRNO
KSCK 151614Z 15003KT 1/2SM FG OVC002 09/08 A3014 RMK AO2 T00890083 RVRNO
KSCK 151605Z 00000KT 1/4SM FG OVC002 09/09 A3015 RMK AO2 T00890089 RVRNO
KSCK 151555Z 23004KT 1/2SM FG OVC002 09/09 A3015 RMK AO2 SLP208 T00890089 RVRNO